Time;durP1;ratioP1;P1;durP2;ratioP2;P2;SDS_P1;SDS_P2;PMS_P1;PMS_P2;Temp;Humidity;BMP_temperature;BMP_pressure;BME280_temperature;BME280_humidity;BME280_pressure;Samples;Min_cycle;Max_cycle;Signal;HPM_P1;HPM_P2
2021/07/17 00:01:22;;;;;;;18.67;14.32;;;;;;;24.37;57.51;99391.03;6184445;23;20619;-63
2021/07/17 00:03:47;;;;;;;17.00;14.10;;;;;;;24.24;57.28;99375.56;6184500;23;19997;-62
2021/07/17 00:06:13;;;;;;;16.90;14.18;;;;;;;24.29;57.56;99399.50;6183768;23;20005;-63
2021/07/17 00:08:38;;;;;;;15.52;13.07;;;;;;;24.25;57.46;99392.81;6183966;23;20005;-63
2021/07/17 00:11:04;;;;;;;16.45;13.98;;;;;;;24.20;57.31;99391.59;6184364;23;20392;-64
2021/07/17 00:13:30;;;;;;;16.45;14.35;;;;;;;24.20;57.38;99391.59;6183917;23;20008;-63
2021/07/17 00:15:57;;;;;;;16.60;13.27;;;;;;;24.16;58.03;99389.53;6183267;23;20309;-62
2021/07/17 00:18:22;;;;;;;15.23;13.52;;;;;;;24.13;57.75;99390.81;6183756;23;20009;-61
2021/07/17 00:20:49;;;;;;;19.73;13.98;;;;;;;24.17;57.97;99400.25;6184881;23;20024;-62
2021/07/17 00:23:15;;;;;;;14.35;12.98;;;;;;;24.16;57.83;99400.47;6183765;23;20001;-63
2021/07/17 00:25:43;;;;;;;18.88;14.63;;;;;;;24.12;57.87;99394.63;6183824;23;20040;-62
2021/07/17 00:28:09;;;;;;;15.25;13.52;;;;;;;24.14;58.21;99392.50;6184087;23;20009;-64
2021/07/17 00:30:34;;;;;;;17.80;13.98;;;;;;;24.11;58.38;99392.91;6184164;23;20048;-62
2021/07/17 00:33:04;;;;;;;15.75;13.77;;;;;;;24.08;58.30;99404.31;6183496;23;20357;-64
2021/07/17 00:35:29;;;;;;;21.98;14.50;;;;;;;24.03;58.30;99385.84;6156979;23;20362;-64
2021/07/17 00:37:54;;;;;;;16.25;14.63;;;;;;;24.02;58.28;99377.88;6183602;23;20045;-62
2021/07/17 00:40:20;;;;;;;16.13;14.30;;;;;;;24.01;58.18;99385.25;6184466;23;20327;-63
2021/07/17 00:42:48;;;;;;;16.20;14.50;;;;;;;24.02;58.10;99400.59;6182536;23;20072;-62
2021/07/17 00:45:15;;;;;;;19.67;14.18;;;;;;;23.98;58.05;99395.75;6182504;23;20028;-63
2021/07/17 00:47:41;;;;;;;15.93;14.18;;;;;;;23.98;58.65;99404.78;6184206;23;20388;-65
2021/07/17 00:50:09;;;;;;;15.52;13.93;;;;;;;23.94;58.38;99398.94;6183756;23;20026;-64
2021/07/17 00:52:35;;;;;;;16.80;14.73;;;;;;;23.94;59.04;99398.09;6184007;23;20001;-63
2021/07/17 00:55:04;;;;;;;16.90;13.93;;;;;;;23.94;58.45;99403.56;6183609;23;19997;-63
2021/07/17 00:57:33;;;;;;;16.15;13.65;;;;;;;23.94;58.41;99404.41;6183170;23;20016;-63
2021/07/17 01:00:17;;;;;;;17.05;13.48;;;;;;;24.00;58.44;99401.81;6183075;23;20005;-63
2021/07/17 01:02:48;;;;;;;16.05;12.93;;;;;;;23.97;58.57;99402.28;6183534;23;20120;-64
2021/07/17 01:05:16;;;;;;;14.93;13.35;;;;;;;23.87;58.87;99392.69;6183964;23;20009;-64
2021/07/17 01:07:45;;;;;;;16.08;13.18;;;;;;;23.87;58.58;99398.16;6183395;23;20040;-63
2021/07/17 01:10:12;;;;;;;16.35;12.82;;;;;;;23.87;58.83;99403.63;6183358;23;20001;-64
2021/07/17 01:12:37;;;;;;;15.20;13.32;;;;;;;23.88;59.17;99405.31;6183617;23;20029;-64
2021/07/17 01:15:04;;;;;;;15.40;13.75;;;;;;;23.89;59.63;99409.72;6183044;23;20039;-63
2021/07/17 01:17:29;;;;;;;19.10;13.32;;;;;;;23.89;59.00;99404.25;6182298;23;20387;-64
2021/07/17 01:19:55;;;;;;;17.20;13.48;;;;;;;23.69;58.90;99366.09;6183055;23;20096;-60
2021/07/17 01:22:20;;;;;;;15.38;13.82;;;;;;;23.93;59.09;99391.78;6183741;23;20009;-64
2021/07/17 01:24:46;;;;;;;17.95;13.60;;;;;;;23.93;58.83;99391.78;6183035;23;20023;-62
2021/07/17 01:27:17;;;;;;;18.20;12.95;;;;;;;23.95;58.82;99399.75;6183413;23;20084;-63
2021/07/17 01:29:43;;;;;;;16.25;13.35;;;;;;;23.95;58.84;99397.03;6183538;23;20008;-63
2021/07/17 01:32:08;;;;;;;21.55;13.55;;;;;;;23.93;59.03;99383.59;6156946;23;20008;-63
2021/07/17 01:34:34;;;;;;;18.45;13.82;;;;;;;23.98;59.15;99393.00;6183105;23;20412;-64
2021/07/17 01:37:02;;;;;;;15.57;13.20;;;;;;;23.98;59.07;99393.00;6157860;23;20009;-62
2021/07/17 01:39:27;;;;;;;15.02;13.45;;;;;;;23.97;58.97;99396.81;6183478;23;20040;-62
2021/07/17 01:41:53;;;;;;;17.63;13.02;;;;;;;23.97;58.93;99399.53;6182949;23;20051;-63
2021/07/17 01:44:18;;;;;;;16.55;14.07;;;;;;;24.00;59.36;99397.22;6182479;23;20319;-64
2021/07/17 01:46:45;;;;;;;15.13;13.40;;;;;;;23.90;59.13;99386.78;6183812;23;20021;-64
2021/07/17 01:49:12;;;;;;;14.57;13.07;;;;;;;24.07;59.00;99400.75;6182847;23;20308;-63
2021/07/17 01:51:37;;;;;;;18.02;13.15;;;;;;;24.10;59.11;99398.63;6182930;23;20004;-64
2021/07/17 01:54:03;;;;;;;18.15;13.35;;;;;;;24.13;58.57;99401.75;6183270;23;20001;-63
2021/07/17 01:56:29;;;;;;;16.45;12.93;;;;;;;24.14;58.09;99389.75;6183827;23;20318;-63
2021/07/17 01:58:55;;;;;;;14.43;12.93;;;;;;;24.25;58.12;99401.03;6183019;23;19997;-63
2021/07/17 02:01:21;;;;;;;14.63;13.23;;;;;;;24.28;58.00;99398.69;6182918;23;20005;-63
2021/07/17 02:03:49;;;;;;;14.52;13.13;;;;;;;24.28;58.18;99378.69;6183099;23;20012;-64
2021/07/17 02:06:21;;;;;;;13.85;12.45;;;;;;;24.37;58.13;99396.50;6183618;23;20557;-63
2021/07/17 02:08:47;;;;;;;15.95;12.90;;;;;;;24.42;57.89;99385.72;6182780;23;20389;-62
2021/07/17 02:11:12;;;;;;;14.65;13.00;;;;;;;24.42;58.00;99373.91;6181828;23;20001;-62
2021/07/17 02:13:38;;;;;;;18.27;13.82;;;;;;;24.43;57.97;99368.22;6182686;23;20067;-63
2021/07/17 02:16:04;;;;;;;15.35;13.80;;;;;;;24.52;58.05;99376.97;6183268;23;20364;-63
2021/07/17 02:18:32;;;;;;;15.52;13.23;;;;;;;24.57;57.64;99384.47;6183137;23;20005;-63
2021/07/17 02:21:07;;;;;;;14.35;12.65;;;;;;;24.77;57.01;99385.13;6182646;23;20083;-54
2021/07/17 02:23:34;;;;;;;13.73;12.30;;;;;;;24.82;57.44;99380.88;6182439;23;20400;-62
2021/07/17 02:26:00;;;;;;;15.38;12.32;;;;;;;24.96;57.22;99370.59;6183524;23;20033;-62
2021/07/17 02:28:25;;;;;;;15.90;13.30;;;;;;;25.09;56.76;99364.94;6183584;23;20012;-63
2021/07/17 02:30:51;;;;;;;14.35;12.82;;;;;;;25.30;56.36;99376.47;6156465;23;20546;-62
2021/07/17 02:33:18;;;;;;;15.98;12.57;;;;;;;25.49;55.45;99380.03;6182832;23;20006;-63
2021/07/17 02:35:44;;;;;;;13.93;12.55;;;;;;;25.74;54.87;99376.28;6183434;23;20084;-62
2021/07/17 02:38:09;;;;;;;14.52;13.02;;;;;;;25.99;54.90;99377.97;6182853;23;20025;-64
2021/07/17 02:40:35;;;;;;;15.73;13.23;;;;;;;26.29;53.23;99377.09;6182675;23;20005;-62
2021/07/17 02:43:00;;;;;;;21.25;13.45;;;;;;;26.53;52.44;99374.34;6182758;23;20080;-62
2021/07/17 02:45:26;;;;;;;18.02;13.60;;;;;;;26.65;52.11;99370.50;6182178;23;20481;-62
2021/07/17 02:47:51;;;;;;;19.60;14.45;;;;;;;26.74;51.72;99373.69;6182455;23;20005;-63
2021/07/17 02:50:18;;;;;;;21.52;14.77;;;;;;;26.79;51.65;99383.94;6182905;23;20013;-64
2021/07/17 02:52:44;;;;;;;20.85;14.23;;;;;;;26.77;52.11;99373.22;6182616;23;20001;-62
2021/07/17 02:55:10;;;;;;;21.88;15.10;;;;;;;26.76;52.42;99382.50;6182868;23;20001;-64
2021/07/17 02:57:36;;;;;;;21.70;15.75;;;;;;;26.70;52.57;99382.66;6182640;23;20090;-61
2021/07/17 03:00:05;;;;;;;22.98;15.82;;;;;;;26.75;52.53;99386.31;6182436;23;20008;-62
2021/07/17 03:02:30;;;;;;;24.63;15.07;;;;;;;26.71;52.62;99390.63;6182451;23;20032;-61
2021/07/17 03:04:56;;;;;;;25.83;15.60;;;;;;;26.70;52.72;99391.72;6182904;23;20028;-62
2021/07/17 03:07:22;;;;;;;23.30;15.30;;;;;;;26.71;52.96;99389.81;6182936;23;20035;-63
2021/07/17 03:09:47;;;;;;;30.08;15.68;;;;;;;26.76;52.61;99393.50;6182577;23;20008;-62
2021/07/17 03:12:13;;;;;;;25.17;16.08;;;;;;;26.84;52.67;99394.22;6182389;23;20135;-64
2021/07/17 03:14:38;;;;;;;23.38;15.48;;;;;;;26.93;52.04;99390.03;6182658;23;20016;-60
2021/07/17 03:17:04;;;;;;;22.02;15.05;;;;;;;26.93;52.15;99365.31;6182552;23;20009;-61
2021/07/17 03:19:29;;;;;;;19.92;15.00;;;;;;;27.27;51.43;99381.94;6182987;23;20479;-62
2021/07/17 03:21:54;;;;;;;20.48;14.82;;;;;;;27.42;50.89;99364.03;6182733;23;20088;-64
2021/07/17 03:24:20;;;;;;;24.77;15.98;;;;;;;27.77;50.01;99382.31;6182710;23;20001;-63
2021/07/17 03:26:45;;;;;;;19.15;14.73;;;;;;;27.96;49.32;99360.03;6181768;23;20096;-61
2021/07/17 03:29:11;;;;;;;17.50;14.43;;;;;;;28.40;48.10;99371.19;6182253;23;20009;-62
2021/07/17 03:31:37;;;;;;;24.92;15.48;;;;;;;28.94;47.19;99397.28;6182795;23;20076;-62
2021/07/17 03:34:02;;;;;;;17.73;14.80;;;;;;;29.23;46.59;99394.31;6182916;23;20344;-56
2021/07/17 03:36:28;;;;;;;21.17;15.10;;;;;;;29.65;45.48;99390.91;6182686;23;20032;-62
2021/07/17 03:38:54;;;;;;;17.40;14.90;;;;;;;30.11;44.39;99381.38;6182061;23;19997;-63
2021/07/17 03:41:20;;;;;;;15.02;13.55;;;;;;;30.68;42.65;99389.22;6182889;23;20005;-63
2021/07/17 03:43:46;;;;;;;15.20;13.63;;;;;;;31.06;41.45;99384.41;6182441;23;20005;-60
2021/07/17 03:46:12;;;;;;;15.57;13.98;;;;;;;31.30;40.75;99376.47;6182541;23;20400;-63
2021/07/17 03:48:38;;;;;;;14.70;13.15;;;;;;;31.49;40.55;99381.50;6182535;23;20009;-63
2021/07/17 03:51:04;;;;;;;14.48;13.07;;;;;;;31.75;39.41;99374.06;6182473;23;20005;-60
2021/07/17 03:53:29;;;;;;;15.15;13.57;;;;;;;31.98;38.68;99348.88;6182740;23;20350;-64
2021/07/17 03:55:55;;;;;;;19.08;13.45;;;;;;;32.57;37.84;99372.34;6181708;23;20007;-62
2021/07/17 03:58:20;;;;;;;17.50;13.80;;;;;;;32.93;36.99;99385.28;6182721;23;20001;-65
2021/07/17 04:00:46;;;;;;;14.43;12.88;;;;;;;33.29;36.66;99371.22;6183388;23;20009;-58
2021/07/17 04:03:11;;;;;;;17.20;13.55;;;;;;;33.61;35.80;99367.16;6184038;23;20411;-62
2021/07/17 04:05:37;;;;;;;17.85;13.55;;;;;;;34.05;35.03;99364.59;6183808;23;20352;-57
2021/07/17 04:08:03;;;;;;;15.25;13.10;;;;;;;34.57;33.97;99370.44;6184196;23;20059;-64
2021/07/17 04:10:29;;;;;;;14.50;13.10;;;;;;;35.18;32.76;99359.69;6184478;23;20108;-61
2021/07/17 04:12:54;;;;;;;14.77;12.10;;;;;;;35.98;31.05;99366.56;6184818;23;20005;-63
2021/07/17 04:15:20;;;;;;;14.00;12.70;;;;;;;36.67;30.21;99359.44;6183561;23;19997;-63
2021/07/17 04:17:45;;;;;;;13.75;12.45;;;;;;;37.21;29.21;99362.50;6184130;23;20487;-62
2021/07/17 04:20:12;;;;;;;14.30;12.90;;;;;;;37.66;28.14;99363.72;6184283;23;20087;-63
2021/07/17 04:22:38;;;;;;;14.43;12.98;;;;;;;38.11;27.29;99360.91;6184445;23;20068;-63
2021/07/17 04:25:04;;;;;;;14.07;12.68;;;;;;;38.77;26.86;99365.78;6184369;23;20001;-64
2021/07/17 04:27:30;;;;;;;14.05;11.77;;;;;;;39.23;25.64;99368.34;6183978;23;20005;-62
2021/07/17 04:29:55;;;;;;;12.85;11.55;;;;;;;39.74;24.53;99367.88;6184152;23;20323;-64
2021/07/17 04:32:21;;;;;;;14.10;12.60;;;;;;;40.22;24.25;99367.94;6184467;23;20412;-64
2021/07/17 04:34:46;;;;;;;13.27;12.02;;;;;;;40.80;23.65;99361.97;6184056;23;20012;-62
2021/07/17 04:37:17;;;;;;;12.75;11.65;;;;;;;41.50;22.93;99372.72;6183043;23;20001;-63
2021/07/17 04:39:43;;;;;;;14.02;12.57;;;;;;;42.00;21.91;99368.09;6183271;23;20308;-64
2021/07/17 04:42:09;;;;;;;13.23;11.80;;;;;;;42.46;21.56;99359.69;6183363;23;20383;-65
2021/07/17 04:44:35;;;;;;;13.35;11.98;;;;;;;42.80;20.47;99367.16;6184085;23;20320;-63
2021/07/17 04:47:01;;;;;;;13.50;12.30;;;;;;;43.11;20.51;99374.16;6183961;23;20001;-60
2021/07/17 04:49:26;;;;;;;13.15;12.05;;;;;;;43.69;19.66;99367.44;6183629;23;20012;-61
2021/07/17 04:51:51;;;;;;;14.00;12.70;;;;;;;44.26;19.07;99376.66;6183274;23;20075;-64
2021/07/17 04:54:17;;;;;;;12.13;11.13;;;;;;;44.81;18.45;99378.00;6183799;23;20005;-64
2021/07/17 04:56:43;;;;;;;14.02;12.77;;;;;;;45.26;18.04;99382.25;6183783;23;20009;-62
2021/07/17 04:59:09;;;;;;;13.93;12.63;;;;;;;45.60;17.76;99376.13;6183443;23;20008;-64
2021/07/17 05:01:35;;;;;;;17.88;13.93;;;;;;;45.90;17.62;99386.00;6183805;23;20008;-65
2021/07/17 05:04:00;;;;;;;13.43;12.25;;;;;;;46.15;16.93;99370.34;6183821;23;20009;-63
2021/07/17 05:06:26;;;;;;;14.25;12.90;;;;;;;46.63;16.75;99380.44;6183594;23;20423;-64
2021/07/17 05:08:51;;;;;;;15.95;12.73;;;;;;;47.03;16.30;99383.03;6182378;23;20024;-63
2021/07/17 05:11:16;;;;;;;15.40;13.68;;;;;;;47.49;15.96;99374.34;6183465;23;20001;-63
2021/07/17 05:13:42;;;;;;;13.90;12.48;;;;;;;47.72;15.46;99385.59;6183429;23;20008;-63
2021/07/17 05:16:07;;;;;;;13.18;11.98;;;;;;;47.90;15.33;99387.00;6183215;23;20009;-56
2021/07/17 05:18:33;;;;;;;14.07;12.75;;;;;;;48.04;15.32;99378.66;6184016;23;20013;-63
2021/07/17 05:20:58;;;;;;;14.45;12.30;;;;;;;48.25;14.99;99386.53;6157244;23;20075;-63
2021/07/17 05:23:24;;;;;;;13.60;12.32;;;;;;;48.48;14.62;99381.91;6183340;23;20009;-66
2021/07/17 05:25:51;;;;;;;14.23;11.50;;;;;;;49.02;14.39;99384.31;6182860;23;20007;-65
2021/07/17 05:28:17;;;;;;;13.23;11.90;;;;;;;49.48;13.63;99377.22;6183313;23;20012;-65
2021/07/17 05:30:42;;;;;;;12.95;11.80;;;;;;;49.74;13.52;99384.63;6182958;23;20005;-66
2021/07/17 05:33:10;;;;;;;12.95;11.60;;;;;;;50.24;13.12;99389.63;6183058;23;20455;-64
2021/07/17 05:35:35;;;;;;;11.80;10.77;;;;;;;50.82;12.41;99383.06;6183947;23;20065;-62
2021/07/17 05:38:02;;;;;;;12.52;11.10;;;;;;;51.21;11.94;99382.19;6183641;23;20418;-63
2021/07/17 05:40:28;;;;;;;15.07;11.45;;;;;;;51.64;11.32;99388.94;6183401;23;20388;-63
2021/07/17 05:42:53;;;;;;;12.48;11.18;;;;;;;52.13;11.22;99382.53;6182525;23;20008;-67
2021/07/17 05:45:19;;;;;;;13.07;11.70;;;;;;;52.63;11.15;99375.56;6183018;23;20009;-66
2021/07/17 05:47:45;;;;;;;15.38;13.07;;;;;;;52.96;10.72;99391.16;6183793;23;20016;-64
2021/07/17 05:50:11;;;;;;;14.88;12.90;;;;;;;53.17;10.68;99388.47;6183060;23;20025;-63
2021/07/17 05:52:36;;;;;;;14.93;13.40;;;;;;;53.27;10.67;99383.84;6183219;23;20096;-64
2021/07/17 05:55:03;;;;;;;13.32;12.02;;;;;;;53.39;10.37;99386.19;6183224;23;20005;-65
2021/07/17 05:57:28;;;;;;;14.40;13.00;;;;;;;53.74;10.06;99383.28;6183518;23;20320;-64
2021/07/17 05:59:54;;;;;;;14.20;12.73;;;;;;;54.15;10.48;99390.84;6183363;23;20009;-64
2021/07/17 06:02:20;;;;;;;15.82;12.55;;;;;;;54.43;9.52;99385.06;6182410;23;20005;-64
2021/07/17 06:04:45;;;;;;;13.70;12.43;;;;;;;54.62;9.47;99378.56;6182332;23;20016;-64
2021/07/17 06:07:11;;;;;;;16.17;13.10;;;;;;;55.05;9.17;99379.03;6183054;23;20008;-60
2021/07/17 06:09:40;;;;;;;14.80;12.20;;;;;;;55.27;8.82;99369.97;6183462;23;20001;-62
2021/07/17 06:12:06;;;;;;;14.68;12.68;;;;;;;55.83;8.67;99385.53;6182829;23;20001;-65
2021/07/17 06:14:32;;;;;;;14.15;12.73;;;;;;;56.32;7.99;99379.06;6183244;23;20092;-65
2021/07/17 06:16:57;;;;;;;14.38;13.07;;;;;;;56.75;8.31;99377.88;6182562;23;20084;-65
2021/07/17 06:19:22;;;;;;;13.35;12.25;;;;;;;57.10;7.71;99379.41;6181912;23;20013;-63
2021/07/17 06:21:48;;;;;;;12.07;10.97;;;;;;;57.46;7.12;99379.13;6182698;23;20007;-64
2021/07/17 06:24:13;;;;;;;10.82;9.75;;;;;;;57.62;6.62;99381.13;6182629;23;20306;-64
2021/07/17 06:26:39;;;;;;;11.30;10.23;;;;;;;57.78;5.84;99365.78;6183546;23;20009;-66
2021/07/17 06:29:04;;;;;;;11.10;10.27;;;;;;;58.09;6.09;99378.78;6182214;23;20207;-64
2021/07/17 06:31:30;;;;;;;10.85;10.05;;;;;;;58.38;5.85;99379.91;6182049;23;20479;-65
2021/07/17 06:33:55;;;;;;;11.45;10.45;;;;;;;58.72;5.25;99378.28;6182053;23;20071;-63
2021/07/17 06:36:21;;;;;;;11.68;10.73;;;;;;;59.01;5.34;99378.06;6182249;23;20076;-64
2021/07/17 06:38:47;;;;;;;11.75;10.60;;;;;;;59.46;4.76;99367.28;6182832;23;20327;-62
2021/07/17 06:41:13;;;;;;;12.32;11.35;;;;;;;59.84;4.65;99373.22;6182663;23;20080;-59
2021/07/17 06:43:38;;;;;;;13.07;11.93;;;;;;;60.02;4.46;99370.34;6182396;23;20384;-62
2021/07/17 06:46:04;;;;;;;12.43;11.32;;;;;;;60.14;4.12;99374.41;6182706;23;20076;-64
2021/07/17 06:48:31;;;;;;;12.98;11.98;;;;;;;60.27;4.71;99367.69;6182684;23;20001;-62
2021/07/17 06:50:56;;;;;;;11.95;11.13;;;;;;;60.50;3.76;99366.25;6156175;23;20274;-64
2021/07/17 06:53:21;;;;;;;13.02;11.93;;;;;;;60.69;3.81;99351.81;6182932;23;20112;-65
2021/07/17 06:55:47;;;;;;;12.30;11.35;;;;;;;61.02;3.75;99368.50;6182233;23;20013;-63
2021/07/17 06:58:13;;;;;;;12.93;12.13;;;;;;;60.93;3.84;99362.72;6182848;23;20486;-61
2021/07/17 07:00:38;;;;;;;12.90;11.90;;;;;;;60.93;3.84;99362.72;6182397;23;20442;-64
2021/07/17 07:03:04;;;;;;;13.87;12.40;;;;;;;61.15;3.48;99357.53;6156296;23;20323;-64
2021/07/17 07:05:30;;;;;;;13.43;12.52;;;;;;;61.45;3.51;99357.75;6182767;23;20207;-64
2021/07/17 07:07:55;;;;;;;13.87;12.67;;;;;;;61.63;3.38;99361.88;6182611;23;20009;-66
2021/07/17 07:10:21;;;;;;;15.40;14.40;;;;;;;61.89;3.39;99367.22;6182142;23;20305;-65
2021/07/17 07:12:47;;;;;;;15.50;14.50;;;;;;;61.64;3.00;99354.81;6181933;23;20001;-66
2021/07/17 07:15:12;;;;;;;15.98;14.88;;;;;;;61.55;3.70;99354.84;6183238;23;20001;-67
2021/07/17 07:17:39;;;;;;;14.65;13.57;;;;;;;61.64;3.69;99345.31;6130682;23;20335;-65
2021/07/17 07:20:09;;;;;;;15.90;14.65;;;;;;;61.73;3.17;99354.72;6156204;23;20032;-66
2021/07/17 07:22:35;;;;;;;16.40;15.25;;;;;;;61.68;3.50;99337.25;6182470;23;20005;-63
2021/07/17 07:25:00;;;;;;;17.15;15.82;;;;;;;61.87;3.86;99347.47;6182485;23;20009;-66
2021/07/17 07:27:26;;;;;;;16.65;15.05;;;;;;;61.58;4.00;99345.97;6182730;23;20005;-64
2021/07/17 07:29:51;;;;;;;16.02;14.93;;;;;;;61.59;3.17;99341.78;6182443;23;20001;-62
2021/07/17 07:32:17;;;;;;;18.10;17.00;;;;;;;61.96;2.80;99343.69;6184495;23;20005;-65
2021/07/17 07:34:44;;;;;;;18.50;16.90;;;;;;;61.85;3.03;99350.03;6185021;23;20005;-66
2021/07/17 07:37:09;;;;;;;16.30;15.32;;;;;;;61.84;3.77;99344.75;6184466;23;20008;-67
2021/07/17 07:39:35;;;;;;;17.40;16.13;;;;;;;62.11;3.45;99337.16;6184604;23;20561;-65
2021/07/17 07:42:01;;;;;;;18.98;17.77;;;;;;;61.99;2.95;99342.72;6184961;23;20407;-66
2021/07/17 07:44:27;;;;;;;19.77;18.48;;;;;;;62.07;3.57;99343.13;6133729;23;20001;-66
2021/07/17 07:46:53;;;;;;;20.98;19.48;;;;;;;61.77;3.53;99336.41;6184058;23;20391;-65
2021/07/17 07:49:19;;;;;;;21.65;20.23;;;;;;;61.70;4.19;99335.44;6184113;23;20001;-66
2021/07/17 07:51:44;;;;;;;20.70;19.17;;;;;;;61.52;4.21;99333.47;6184742;23;20373;-65
2021/07/17 07:54:10;;;;;;;18.77;17.48;;;;;;;61.57;4.12;99332.00;6184647;23;20008;-68
2021/07/17 07:56:36;;;;;;;18.98;17.92;;;;;;;61.45;3.52;99305.66;6184207;23;20012;-65
2021/07/17 07:59:01;;;;;;;17.50;16.50;;;;;;;61.57;3.50;99320.41;6183935;23;20364;-66
2021/07/17 08:01:26;;;;;;;20.70;19.20;;;;;;;61.35;3.27;99324.38;6183615;23;20237;-65
2021/07/17 08:03:52;;;;;;;19.67;18.33;;;;;;;60.77;3.90;99332.06;6182307;23;20207;-64
2021/07/17 08:06:17;;;;;;;17.20;16.10;;;;;;;59.92;4.59;99322.50;6181619;23;20001;-65
2021/07/17 08:08:43;;;;;;;17.05;15.90;;;;;;;59.33;4.70;99312.50;6184198;23;20084;-67
2021/07/17 08:11:14;;;;;;;18.05;16.95;;;;;;;58.83;4.83;99323.13;6184010;23;20001;-65
2021/07/17 08:13:40;;;;;;;14.73;13.63;;;;;;;57.91;5.49;99313.19;6157986;23;20001;-68
2021/07/17 08:16:05;;;;;;;14.43;13.52;;;;;;;57.13;5.79;99310.25;6183420;23;20012;-64
2021/07/17 08:18:31;;;;;;;13.70;12.90;;;;;;;55.33;6.69;99300.13;6183958;23;20416;-66
2021/07/17 08:20:57;;;;;;;12.50;11.63;;;;;;;54.03;7.45;99296.97;6184204;23;20027;-68
2021/07/17 08:23:23;;;;;;;12.35;11.48;;;;;;;53.53;8.17;99305.88;6184326;23;19997;-65
2021/07/17 08:25:50;;;;;;;11.65;10.73;;;;;;;52.08;9.34;99295.28;6183599;23;20065;-66
2021/07/17 08:28:15;;;;;;;11.65;10.65;;;;;;;49.67;11.02;99287.88;6184240;23;20160;-65
2021/07/17 08:30:41;;;;;;;11.23;10.32;;;;;;;47.55;12.68;99290.59;6183781;23;20411;-65
2021/07/17 08:33:07;;;;;;;11.02;10.20;;;;;;;46.03;13.59;99288.44;6183758;23;20004;-65
2021/07/17 08:35:33;;;;;;;10.73;9.70;;;;;;;44.77;15.22;99286.75;6157346;23;20016;-64
2021/07/17 08:37:59;;;;;;;11.43;10.35;;;;;;;43.71;15.71;99297.44;6183299;23;20377;-66
2021/07/17 08:40:25;;;;;;;11.77;10.88;;;;;;;42.65;17.46;99299.16;6183739;23;20008;-64
2021/07/17 08:42:52;;;;;;;12.40;11.20;;;;;;;41.71;18.70;99301.63;6183135;23;20005;-67
2021/07/17 08:45:18;;;;;;;13.43;12.23;;;;;;;40.94;19.66;99309.19;6183767;23;20431;-65
2021/07/17 08:47:45;;;;;;;12.63;11.57;;;;;;;40.25;20.38;99298.00;6183861;23;20084;-65
2021/07/17 08:50:21;;;;;;;14.88;13.27;;;;;;;39.78;20.71;99298.81;6183712;23;20005;-66
2021/07/17 08:52:50;;;;;;;13.02;11.88;;;;;;;38.80;22.17;99307.53;6178255;23;20056;-70
2021/07/17 08:55:16;;;;;;;12.98;11.70;;;;;;;37.85;23.47;99294.47;6182048;23;20009;-66
2021/07/17 08:57:43;;;;;;;12.85;11.82;;;;;;;37.30;24.41;99288.03;6181922;23;20008;-63
2021/07/17 09:00:19;;;;;;;14.18;12.98;;;;;;;37.18;24.43;99305.34;6182467;23;20028;-66
2021/07/17 09:02:47;;;;;;;13.20;12.20;;;;;;;36.95;25.01;99298.88;6181790;23;20478;-64
2021/07/17 09:05:16;;;;;;;13.45;12.23;;;;;;;36.71;25.54;99302.75;6180922;23;20024;-65
2021/07/17 09:07:42;;;;;;;14.20;12.90;;;;;;;36.29;26.14;99287.97;6181682;23;20323;-63
2021/07/17 09:10:29;;;;;;;14.32;13.00;;;;;;;36.31;25.33;99296.84;6182555;23;19997;-67
2021/07/17 09:13:22;;;;;;;13.77;12.45;;;;;;;36.08;25.81;99299.53;6182702;23;20081;-65
2021/07/17 09:15:50;;;;;;;13.65;12.40;;;;;;;35.89;26.41;99292.03;6182268;23;20084;-66
2021/07/17 09:18:32;;;;;;;13.02;11.90;;;;;;;36.08;26.06;99268.88;6155885;23;20071;-67
2021/07/17 09:21:05;;;;;;;13.77;12.38;;;;;;;36.29;26.08;99282.41;6183538;23;20017;-64
2021/07/17 09:23:42;;;;;;;13.40;12.30;;;;;;;36.56;25.49;99287.19;6183269;23;20028;-65
2021/07/17 09:26:14;;;;;;;13.68;12.50;;;;;;;36.49;25.27;99256.06;6183814;23;20446;-65
2021/07/17 09:28:40;;;;;;;13.65;12.55;;;;;;;36.81;25.36;99272.97;6183953;23;20000;-66
2021/07/17 09:31:07;;;;;;;13.10;11.95;;;;;;;37.05;25.01;99270.75;6183042;23;20012;-63
2021/07/17 09:33:34;;;;;;;13.55;12.45;;;;;;;37.31;24.56;99266.53;6183208;23;20060;-68
2021/07/17 09:35:59;;;;;;;14.85;13.23;;;;;;;37.49;24.35;99256.34;6183218;23;20008;-65
2021/07/17 09:38:29;;;;;;;14.38;12.95;;;;;;;37.72;24.25;99256.31;6183336;23;20008;-65
2021/07/17 09:40:57;;;;;;;14.75;13.55;;;;;;;37.76;24.50;99266.53;6183421;23;20008;-63
2021/07/17 09:43:33;;;;;;;13.52;12.48;;;;;;;37.88;23.63;99260.34;6183004;23;20020;-62
2021/07/17 09:46:01;;;;;;;13.65;12.38;;;;;;;37.83;23.07;99259.66;6183227;23;20035;-66
2021/07/17 09:48:30;;;;;;;14.20;12.93;;;;;;;37.82;23.30;99253.22;6183685;23;20032;-66
2021/07/17 09:50:57;;;;;;;13.65;12.38;;;;;;;37.79;24.31;99261.44;6183278;23;20024;-66
2021/07/17 09:53:44;;;;;;;14.52;13.32;;;;;;;37.89;23.76;99253.59;6182387;23;20004;-62
2021/07/17 09:56:12;;;;;;;14.75;13.50;;;;;;;37.55;24.15;99243.88;6156825;23;20092;-66
2021/07/17 09:58:38;;;;;;;14.48;13.18;;;;;;;37.61;24.21;99239.81;6183370;23;20009;-67
2021/07/17 10:01:34;;;;;;;14.00;12.82;;;;;;;38.01;23.15;99235.44;6182681;23;20005;-65
2021/07/17 10:04:06;;;;;;;13.38;12.27;;;;;;;38.07;23.61;99228.53;6182313;23;20332;-66
2021/07/17 10:06:32;;;;;;;13.60;12.30;;;;;;;38.24;23.14;99226.94;6183236;23;20072;-68
2021/07/17 10:09:03;;;;;;;13.00;11.70;;;;;;;38.38;22.81;99218.44;6180166;23;20044;-67
2021/07/17 10:13:09;;;;;;;14.18;13.07;;;;;;;38.04;23.24;99212.44;5065935;28;20394;-70
2021/07/17 10:15:34;;;;;;;13.68;12.43;;;;;;;38.13;22.77;99218.88;5066763;28;20456;-62
2021/07/17 10:18:23;;;;;;;12.98;11.98;;;;;;;38.17;22.88;99228.25;5069564;28;20112;-63
2021/07/17 10:20:55;;;;;;;12.43;11.43;;;;;;;38.15;22.70;99233.34;5064593;28;20031;-68
2021/07/17 10:23:21;;;;;;;13.55;12.55;;;;;;;37.98;23.33;99227.69;5058661;28;20507;-63
2021/07/17 10:25:47;;;;;;;14.15;12.95;;;;;;;37.56;22.64;99217.63;5065503;28;20028;-64
2021/07/17 10:28:13;;;;;;;13.32;12.27;;;;;;;37.24;24.23;99219.53;5069908;28;20035;-64
2021/07/17 10:30:39;;;;;;;13.13;11.93;;;;;;;37.03;24.41;99216.44;5065320;28;20383;-64
2021/07/17 10:33:06;;;;;;;13.20;11.88;;;;;;;36.98;24.24;99236.88;5077501;28;20490;-63
2021/07/17 10:35:34;;;;;;;13.75;12.45;;;;;;;36.90;24.00;99224.50;5071779;28;20533;-61
2021/07/17 10:38:04;;;;;;;12.80;11.73;;;;;;;36.76;24.66;99226.50;5082979;28;20575;-62
2021/07/17 10:40:31;;;;;;;13.05;11.95;;;;;;;36.59;24.89;99202.91;5073268;28;20031;-61
2021/07/17 10:42:58;;;;;;;12.63;11.45;;;;;;;36.63;24.95;99222.59;5076383;28;20032;-61
2021/07/17 10:45:38;;;;;;;13.95;12.38;;;;;;;36.42;24.62;99211.91;5081040;28;20459;-62
2021/07/17 10:48:27;;;;;;;13.55;12.18;;;;;;;36.35;25.33;99250.50;5070236;28;20048;-63
2021/07/17 10:50:56;;;;;;;16.70;12.38;;;;;;;35.66;27.96;99262.38;5077112;28;20031;-64
2021/07/17 10:53:40;;;;;;;13.63;12.32;;;;;;;35.25;28.59;99261.09;5080546;28;20024;-64
2021/07/17 10:56:27;;;;;;;19.05;12.13;;;;;;;34.83;29.29;99297.03;5070399;28;20035;-66
2021/07/17 10:59:11;;;;;;;14.70;12.65;;;;;;;34.32;30.55;99314.00;5070235;28;20037;-64
2021/07/17 11:01:56;;;;;;;15.60;12.30;;;;;;;33.93;30.76;99326.06;5067110;28;20472;-64
2021/07/17 11:04:38;;;;;;;12.65;11.40;;;;;;;33.40;32.02;99332.31;5067858;28;20138;-63
2021/07/17 11:07:16;;;;;;;11.27;9.95;;;;;;;32.87;32.74;99350.34;5054098;28;20027;-60
2021/07/17 11:10:14;;;;;;;10.98;9.27;;;;;;;32.25;33.17;99336.66;5070937;28;20059;-74
2021/07/17 11:12:54;;;;;;;14.73;9.38;;;;;;;31.75;34.31;99360.22;5065042;28;20107;-59
2021/07/17 11:15:21;;;;;;;12.35;8.98;;;;;;;31.09;36.36;99356.22;5067209;28;20139;-61
2021/07/17 11:17:47;;;;;;;9.27;8.43;;;;;;;30.74;37.32;99355.81;5061455;28;20529;-71
2021/07/17 11:20:22;;;;;;;13.85;9.77;;;;;;;30.66;36.63;99370.16;5066365;28;20036;-62
2021/07/17 11:23:08;;;;;;;;;;;;;;;30.77;34.72;99358.03;5063441;28;20025;-59